<?xml version="1.0" encoding="UTF-8" standalone="no" ?>
<gpx xmlns="http://www.topografix.com/GPX/1/1" xmlns:xsi="http://www.w3.org/2001/XMLSchema-instance" xsi:schemaLocation="http://www.topografix.com/GPX/1/1 http://www.topografix.com/GPX/1/1/gpx.xsd" version="1.1" creator="VisuGPX - https://www.visugpx.com">
  <metadata>
    <name>Source du Lez</name>
    <desc><![CDATA[Source du Lez depuis le parc St Sauveur]]></desc>
  </metadata>
  <trk>
    <name><![CDATA[Source du Lez - Septembre 2015]]></name>
    <trkseg>
      <trkpt lat="43.70857" lon="3.83445">
        <ele>118.86</ele>
        <time>2015-09-06T13:28:38Z</time>
      </trkpt>
      <trkpt lat="43.7085" lon="3.83482">
        <ele>121.46</ele>
        <time>2015-09-06T13:29:13Z</time>
      </trkpt>
      <trkpt lat="43.70844" lon="3.83532">
        <ele>122.21</ele>
        <time>2015-09-06T13:29:48Z</time>
      </trkpt>
      <trkpt lat="43.70844" lon="3.83576">
        <ele>122.74</ele>
        <time>2015-09-06T13:30:20Z</time>
      </trkpt>
      <trkpt lat="43.70857" lon="3.83614">
        <ele>121.66</ele>
        <time>2015-09-06T13:30:53Z</time>
      </trkpt>
      <trkpt lat="43.70863" lon="3.8364">
        <ele>120.97</ele>
        <time>2015-09-06T13:31:11Z</time>
      </trkpt>
      <trkpt lat="43.70876" lon="3.83686">
        <ele>118.63</ele>
        <time>2015-09-06T13:31:48Z</time>
      </trkpt>
      <trkpt lat="43.70876" lon="3.83721">
        <ele>116.69</ele>
        <time>2015-09-06T13:32:14Z</time>
      </trkpt>
      <trkpt lat="43.70874" lon="3.83761">
        <ele>114.33</ele>
        <time>2015-09-06T13:33:07Z</time>
      </trkpt>
      <trkpt lat="43.70879" lon="3.83799">
        <ele>113.91</ele>
        <time>2015-09-06T13:33:34Z</time>
      </trkpt>
      <trkpt lat="43.70884" lon="3.83825">
        <ele>113.72</ele>
        <time>2015-09-06T13:33:50Z</time>
      </trkpt>
      <trkpt lat="43.70896" lon="3.83846">
        <ele>113.66</ele>
        <time>2015-09-06T13:34:07Z</time>
      </trkpt>
      <trkpt lat="43.70909" lon="3.83864">
        <ele>114.68</ele>
        <time>2015-09-06T13:34:25Z</time>
      </trkpt>
      <trkpt lat="43.70917" lon="3.83887">
        <ele>114.88</ele>
        <time>2015-09-06T13:34:45Z</time>
      </trkpt>
      <trkpt lat="43.7092" lon="3.83896">
        <ele>115.02</ele>
        <time>2015-09-06T13:35:09Z</time>
      </trkpt>
      <trkpt lat="43.70925" lon="3.83921">
        <ele>116.63</ele>
        <time>2015-09-06T13:35:30Z</time>
      </trkpt>
      <trkpt lat="43.7095" lon="3.83955">
        <ele>114.76</ele>
        <time>2015-09-06T13:36:07Z</time>
      </trkpt>
      <trkpt lat="43.70981" lon="3.83976">
        <ele>110.95</ele>
        <time>2015-09-06T13:36:46Z</time>
      </trkpt>
      <trkpt lat="43.71" lon="3.83976">
        <ele>109.01</ele>
        <time>2015-09-06T13:37:22Z</time>
      </trkpt>
      <trkpt lat="43.7103" lon="3.8398">
        <ele>103.78</ele>
        <time>2015-09-06T13:38:16Z</time>
      </trkpt>
      <trkpt lat="43.71057" lon="3.83988">
        <ele>101.03</ele>
        <time>2015-09-06T13:38:49Z</time>
      </trkpt>
      <trkpt lat="43.71076" lon="3.83986">
        <ele>98.13</ele>
        <time>2015-09-06T13:39:11Z</time>
      </trkpt>
      <trkpt lat="43.7109" lon="3.84006">
        <ele>95.31</ele>
        <time>2015-09-06T13:39:45Z</time>
      </trkpt>
      <trkpt lat="43.71089" lon="3.84036">
        <ele>96.43</ele>
        <time>2015-09-06T13:40:12Z</time>
      </trkpt>
      <trkpt lat="43.71091" lon="3.84068">
        <ele>100.95</ele>
        <time>2015-09-06T13:40:44Z</time>
      </trkpt>
      <trkpt lat="43.71094" lon="3.84103">
        <ele>104.74</ele>
        <time>2015-09-06T13:41:20Z</time>
      </trkpt>
      <trkpt lat="43.71097" lon="3.84133">
        <ele>104.11</ele>
        <time>2015-09-06T13:41:48Z</time>
      </trkpt>
      <trkpt lat="43.71105" lon="3.84161">
        <ele>100.69</ele>
        <time>2015-09-06T13:42:14Z</time>
      </trkpt>
      <trkpt lat="43.71113" lon="3.84189">
        <ele>98.07</ele>
        <time>2015-09-06T13:42:44Z</time>
      </trkpt>
      <trkpt lat="43.71123" lon="3.84227">
        <ele>93.44</ele>
        <time>2015-09-06T13:43:24Z</time>
      </trkpt>
      <trkpt lat="43.71134" lon="3.84251">
        <ele>91.84</ele>
        <time>2015-09-06T13:43:47Z</time>
      </trkpt>
      <trkpt lat="43.71147" lon="3.84277">
        <ele>87.55</ele>
        <time>2015-09-06T13:44:17Z</time>
      </trkpt>
      <trkpt lat="43.71169" lon="3.84281">
        <ele>85.55</ele>
        <time>2015-09-06T13:44:43Z</time>
      </trkpt>
      <trkpt lat="43.71191" lon="3.84262">
        <ele>81.64</ele>
        <time>2015-09-06T13:45:20Z</time>
      </trkpt>
      <trkpt lat="43.71211" lon="3.84265">
        <ele>80.72</ele>
        <time>2015-09-06T13:45:49Z</time>
      </trkpt>
      <trkpt lat="43.71228" lon="3.84286">
        <ele>82.9</ele>
        <time>2015-09-06T13:46:23Z</time>
      </trkpt>
      <trkpt lat="43.71217" lon="3.84309">
        <ele>79.86</ele>
        <time>2015-09-06T13:46:49Z</time>
      </trkpt>
      <trkpt lat="43.71221" lon="3.84335">
        <ele>78.8</ele>
        <time>2015-09-06T13:47:28Z</time>
      </trkpt>
      <trkpt lat="43.71233" lon="3.84358">
        <ele>83.22</ele>
        <time>2015-09-06T13:47:58Z</time>
      </trkpt>
      <trkpt lat="43.71238" lon="3.84382">
        <ele>85.09</ele>
        <time>2015-09-06T13:48:24Z</time>
      </trkpt>
      <trkpt lat="43.71236" lon="3.84408">
        <ele>90.56</ele>
        <time>2015-09-06T13:48:59Z</time>
      </trkpt>
      <trkpt lat="43.71243" lon="3.84437">
        <ele>95.23</ele>
        <time>2015-09-06T13:49:37Z</time>
      </trkpt>
      <trkpt lat="43.71249" lon="3.84471">
        <ele>97.88</ele>
        <time>2015-09-06T13:50:09Z</time>
      </trkpt>
      <trkpt lat="43.71243" lon="3.84494">
        <ele>98.21</ele>
        <time>2015-09-06T13:50:34Z</time>
      </trkpt>
      <trkpt lat="43.71241" lon="3.8453">
        <ele>96.03</ele>
        <time>2015-09-06T13:51:01Z</time>
      </trkpt>
      <trkpt lat="43.71228" lon="3.84548">
        <ele>94.98</ele>
        <time>2015-09-06T13:52:34Z</time>
      </trkpt>
      <trkpt lat="43.71209" lon="3.84571">
        <ele>90.42</ele>
        <time>2015-09-06T13:53:33Z</time>
      </trkpt>
      <trkpt lat="43.71197" lon="3.84588">
        <ele>86.92</ele>
        <time>2015-09-06T13:54:10Z</time>
      </trkpt>
      <trkpt lat="43.71196" lon="3.8462">
        <ele>85.67</ele>
        <time>2015-09-06T13:54:42Z</time>
      </trkpt>
      <trkpt lat="43.71197" lon="3.84649">
        <ele>83.18</ele>
        <time>2015-09-06T13:55:12Z</time>
      </trkpt>
      <trkpt lat="43.71195" lon="3.84678">
        <ele>77.55</ele>
        <time>2015-09-06T13:55:52Z</time>
      </trkpt>
      <trkpt lat="43.71215" lon="3.84701">
        <ele>76.89</ele>
        <time>2015-09-06T13:56:30Z</time>
      </trkpt>
      <trkpt lat="43.71227" lon="3.84733">
        <ele>75.85</ele>
        <time>2015-09-06T13:57:06Z</time>
      </trkpt>
      <trkpt lat="43.7123" lon="3.84761">
        <ele>72.01</ele>
        <time>2015-09-06T13:57:37Z</time>
      </trkpt>
      <trkpt lat="43.71243" lon="3.84778">
        <ele>70.85</ele>
        <time>2015-09-06T13:57:57Z</time>
      </trkpt>
      <trkpt lat="43.71263" lon="3.84788">
        <ele>70.89</ele>
        <time>2015-09-06T13:58:21Z</time>
      </trkpt>
      <trkpt lat="43.71293" lon="3.84796">
        <ele>74.53</ele>
        <time>2015-09-06T13:58:55Z</time>
      </trkpt>
      <trkpt lat="43.71325" lon="3.84797">
        <ele>76.05</ele>
        <time>2015-09-06T13:59:35Z</time>
      </trkpt>
      <trkpt lat="43.7135" lon="3.84785">
        <ele>76.94</ele>
        <time>2015-09-06T14:00:06Z</time>
      </trkpt>
      <trkpt lat="43.71374" lon="3.84766">
        <ele>80.08</ele>
        <time>2015-09-06T14:00:37Z</time>
      </trkpt>
      <trkpt lat="43.71401" lon="3.84765">
        <ele>81.23</ele>
        <time>2015-09-06T14:01:07Z</time>
      </trkpt>
      <trkpt lat="43.71419" lon="3.84771">
        <ele>82.09</ele>
        <time>2015-09-06T14:01:26Z</time>
      </trkpt>
      <trkpt lat="43.71452" lon="3.84778">
        <ele>80.32</ele>
        <time>2015-09-06T14:02:02Z</time>
      </trkpt>
      <trkpt lat="43.71473" lon="3.84784">
        <ele>79.76</ele>
        <time>2015-09-06T14:02:23Z</time>
      </trkpt>
      <trkpt lat="43.71493" lon="3.84813">
        <ele>77.08</ele>
        <time>2015-09-06T14:02:53Z</time>
      </trkpt>
      <trkpt lat="43.71513" lon="3.84832">
        <ele>75.75</ele>
        <time>2015-09-06T14:03:18Z</time>
      </trkpt>
      <trkpt lat="43.7153" lon="3.84843">
        <ele>75.64</ele>
        <time>2015-09-06T14:03:44Z</time>
      </trkpt>
      <trkpt lat="43.71554" lon="3.8484">
        <ele>73.51</ele>
        <time>2015-09-06T14:04:16Z</time>
      </trkpt>
      <trkpt lat="43.71574" lon="3.84818">
        <ele>71.81</ele>
        <time>2015-09-06T14:04:50Z</time>
      </trkpt>
      <trkpt lat="43.71583" lon="3.84786">
        <ele>70.06</ele>
        <time>2015-09-06T14:05:17Z</time>
      </trkpt>
      <trkpt lat="43.71591" lon="3.84753">
        <ele>67.62</ele>
        <time>2015-09-06T14:05:44Z</time>
      </trkpt>
      <trkpt lat="43.71606" lon="3.84745">
        <ele>64.34</ele>
        <time>2015-09-06T14:06:14Z</time>
      </trkpt>
      <trkpt lat="43.71623" lon="3.84753">
        <ele>61.25</ele>
        <time>2015-09-06T14:06:45Z</time>
      </trkpt>
      <trkpt lat="43.71637" lon="3.84741">
        <ele>59.56</ele>
        <time>2015-09-06T14:07:37Z</time>
      </trkpt>
      <trkpt lat="43.71654" lon="3.84716">
        <ele>60.21</ele>
        <time>2015-09-06T14:08:13Z</time>
      </trkpt>
      <trkpt lat="43.71668" lon="3.84689">
        <ele>60.13</ele>
        <time>2015-09-06T14:08:50Z</time>
      </trkpt>
      <trkpt lat="43.71662" lon="3.84654">
        <ele>59.49</ele>
        <time>2015-09-06T14:09:40Z</time>
      </trkpt>
      <trkpt lat="43.71666" lon="3.84617">
        <ele>59.32</ele>
        <time>2015-09-06T14:10:16Z</time>
      </trkpt>
      <trkpt lat="43.71689" lon="3.84589">
        <ele>58.57</ele>
        <time>2015-09-06T14:10:54Z</time>
      </trkpt>
      <trkpt lat="43.71695" lon="3.84588">
        <ele>58.58</ele>
        <time>2015-09-06T14:13:06Z</time>
      </trkpt>
      <trkpt lat="43.71687" lon="3.84559">
        <ele>59.86</ele>
        <time>2015-09-06T14:13:48Z</time>
      </trkpt>
      <trkpt lat="43.71703" lon="3.84531">
        <ele>58.77</ele>
        <time>2015-09-06T14:14:31Z</time>
      </trkpt>
      <trkpt lat="43.71718" lon="3.84494">
        <ele>59.85</ele>
        <time>2015-09-06T14:15:05Z</time>
      </trkpt>
      <trkpt lat="43.71721" lon="3.84482">
        <ele>59.23</ele>
        <time>2015-09-06T14:16:35Z</time>
      </trkpt>
      <trkpt lat="43.71723" lon="3.84446">
        <ele>62.23</ele>
        <time>2015-09-06T14:17:09Z</time>
      </trkpt>
      <trkpt lat="43.71752" lon="3.84438">
        <ele>61.75</ele>
        <time>2015-09-06T14:17:46Z</time>
      </trkpt>
      <trkpt lat="43.71769" lon="3.84424">
        <ele>61.22</ele>
        <time>2015-09-06T14:18:08Z</time>
      </trkpt>
      <trkpt lat="43.71801" lon="3.84384">
        <ele>61.25</ele>
        <time>2015-09-06T14:18:50Z</time>
      </trkpt>
      <trkpt lat="43.71799" lon="3.84384">
        <ele>61.43</ele>
        <time>2015-09-06T14:19:55Z</time>
      </trkpt>
      <trkpt lat="43.71779" lon="3.84408">
        <ele>61.74</ele>
        <time>2015-09-06T14:20:43Z</time>
      </trkpt>
      <trkpt lat="43.71768" lon="3.84436">
        <ele>60.57</ele>
        <time>2015-09-06T14:21:19Z</time>
      </trkpt>
      <trkpt lat="43.71774" lon="3.84452">
        <ele>61.74</ele>
        <time>2015-09-06T14:22:05Z</time>
      </trkpt>
      <trkpt lat="43.71766" lon="3.8444">
        <ele>59.77</ele>
        <time>2015-09-06T14:23:15Z</time>
      </trkpt>
      <trkpt lat="43.71765" lon="3.84435">
        <ele>59.75</ele>
        <time>2015-09-06T14:24:36Z</time>
      </trkpt>
      <trkpt lat="43.71739" lon="3.84446">
        <ele>60.52</ele>
        <time>2015-09-06T14:25:29Z</time>
      </trkpt>
      <trkpt lat="43.71717" lon="3.84453">
        <ele>60.3</ele>
        <time>2015-09-06T14:26:06Z</time>
      </trkpt>
      <trkpt lat="43.71721" lon="3.84489">
        <ele>57.47</ele>
        <time>2015-09-06T14:27:15Z</time>
      </trkpt>
      <trkpt lat="43.71721" lon="3.84527">
        <ele>55.53</ele>
        <time>2015-09-06T14:28:10Z</time>
      </trkpt>
      <trkpt lat="43.71706" lon="3.84557">
        <ele>55.42</ele>
        <time>2015-09-06T14:29:06Z</time>
      </trkpt>
      <trkpt lat="43.71697" lon="3.84579">
        <ele>54.91</ele>
        <time>2015-09-06T14:30:12Z</time>
      </trkpt>
      <trkpt lat="43.71696" lon="3.84574">
        <ele>55.82</ele>
        <time>2015-09-06T14:34:16Z</time>
      </trkpt>
      <trkpt lat="43.71695" lon="3.8458">
        <ele>56.47</ele>
        <time>2015-09-06T14:39:18Z</time>
      </trkpt>
      <trkpt lat="43.71696" lon="3.84576">
        <ele>58.15</ele>
        <time>2015-09-06T14:44:36Z</time>
      </trkpt>
      <trkpt lat="43.71695" lon="3.84575">
        <ele>58.93</ele>
        <time>2015-09-06T14:47:39Z</time>
      </trkpt>
      <trkpt lat="43.71692" lon="3.84551">
        <ele>59.85</ele>
        <time>2015-09-06T14:48:24Z</time>
      </trkpt>
      <trkpt lat="43.71699" lon="3.84513">
        <ele>61.09</ele>
        <time>2015-09-06T14:49:11Z</time>
      </trkpt>
      <trkpt lat="43.71701" lon="3.84483">
        <ele>61.71</ele>
        <time>2015-09-06T14:49:48Z</time>
      </trkpt>
      <trkpt lat="43.71699" lon="3.84456">
        <ele>63.42</ele>
        <time>2015-09-06T14:50:21Z</time>
      </trkpt>
      <trkpt lat="43.71672" lon="3.84475">
        <ele>63.27</ele>
        <time>2015-09-06T14:50:58Z</time>
      </trkpt>
      <trkpt lat="43.71644" lon="3.84484">
        <ele>67.99</ele>
        <time>2015-09-06T14:51:41Z</time>
      </trkpt>
      <trkpt lat="43.71618" lon="3.84492">
        <ele>74.23</ele>
        <time>2015-09-06T14:52:33Z</time>
      </trkpt>
      <trkpt lat="43.71596" lon="3.84502">
        <ele>79.04</ele>
        <time>2015-09-06T14:53:17Z</time>
      </trkpt>
      <trkpt lat="43.7158" lon="3.84516">
        <ele>84.06</ele>
        <time>2015-09-06T14:54:01Z</time>
      </trkpt>
      <trkpt lat="43.71559" lon="3.84526">
        <ele>88.82</ele>
        <time>2015-09-06T14:54:34Z</time>
      </trkpt>
      <trkpt lat="43.71533" lon="3.8454">
        <ele>93.81</ele>
        <time>2015-09-06T14:55:15Z</time>
      </trkpt>
      <trkpt lat="43.71527" lon="3.8457">
        <ele>97.95</ele>
        <time>2015-09-06T14:55:56Z</time>
      </trkpt>
      <trkpt lat="43.71508" lon="3.84595">
        <ele>101.05</ele>
        <time>2015-09-06T14:56:34Z</time>
      </trkpt>
      <trkpt lat="43.71484" lon="3.84597">
        <ele>103.46</ele>
        <time>2015-09-06T14:57:09Z</time>
      </trkpt>
      <trkpt lat="43.71461" lon="3.84603">
        <ele>104.27</ele>
        <time>2015-09-06T14:57:47Z</time>
      </trkpt>
      <trkpt lat="43.71445" lon="3.846">
        <ele>104.82</ele>
        <time>2015-09-06T14:58:32Z</time>
      </trkpt>
      <trkpt lat="43.71427" lon="3.84573">
        <ele>104.78</ele>
        <time>2015-09-06T14:59:09Z</time>
      </trkpt>
      <trkpt lat="43.71415" lon="3.84548">
        <ele>103.14</ele>
        <time>2015-09-06T14:59:35Z</time>
      </trkpt>
      <trkpt lat="43.7141" lon="3.84517">
        <ele>100.63</ele>
        <time>2015-09-06T15:00:08Z</time>
      </trkpt>
      <trkpt lat="43.71398" lon="3.8448">
        <ele>99.32</ele>
        <time>2015-09-06T15:00:45Z</time>
      </trkpt>
      <trkpt lat="43.71388" lon="3.84452">
        <ele>100.31</ele>
        <time>2015-09-06T15:01:08Z</time>
      </trkpt>
      <trkpt lat="43.7138" lon="3.84417">
        <ele>102.62</ele>
        <time>2015-09-06T15:01:43Z</time>
      </trkpt>
      <trkpt lat="43.71386" lon="3.84386">
        <ele>100.43</ele>
        <time>2015-09-06T15:02:14Z</time>
      </trkpt>
      <trkpt lat="43.71389" lon="3.8436">
        <ele>99.87</ele>
        <time>2015-09-06T15:02:47Z</time>
      </trkpt>
      <trkpt lat="43.71403" lon="3.84317">
        <ele>100.95</ele>
        <time>2015-09-06T15:03:39Z</time>
      </trkpt>
      <trkpt lat="43.71419" lon="3.8429">
        <ele>100.97</ele>
        <time>2015-09-06T15:04:13Z</time>
      </trkpt>
      <trkpt lat="43.71425" lon="3.84253">
        <ele>98.11</ele>
        <time>2015-09-06T15:04:52Z</time>
      </trkpt>
      <trkpt lat="43.7144" lon="3.84224">
        <ele>98.7</ele>
        <time>2015-09-06T15:05:25Z</time>
      </trkpt>
      <trkpt lat="43.71459" lon="3.84191">
        <ele>97.78</ele>
        <time>2015-09-06T15:05:58Z</time>
      </trkpt>
      <trkpt lat="43.71469" lon="3.84169">
        <ele>97.68</ele>
        <time>2015-09-06T15:06:17Z</time>
      </trkpt>
      <trkpt lat="43.71479" lon="3.84146">
        <ele>97.3</ele>
        <time>2015-09-06T15:06:37Z</time>
      </trkpt>
      <trkpt lat="43.71491" lon="3.84116">
        <ele>97.38</ele>
        <time>2015-09-06T15:07:04Z</time>
      </trkpt>
      <trkpt lat="43.71507" lon="3.8408">
        <ele>100.38</ele>
        <time>2015-09-06T15:07:38Z</time>
      </trkpt>
      <trkpt lat="43.71515" lon="3.84063">
        <ele>102.85</ele>
        <time>2015-09-06T15:11:11Z</time>
      </trkpt>
      <trkpt lat="43.71536" lon="3.84045">
        <ele>107.1</ele>
        <time>2015-09-06T15:11:46Z</time>
      </trkpt>
      <trkpt lat="43.71551" lon="3.84018">
        <ele>111.44</ele>
        <time>2015-09-06T15:12:21Z</time>
      </trkpt>
      <trkpt lat="43.71566" lon="3.84009">
        <ele>113.76</ele>
        <time>2015-09-06T15:12:52Z</time>
      </trkpt>
      <trkpt lat="43.71582" lon="3.84046">
        <ele>114.04</ele>
        <time>2015-09-06T15:13:36Z</time>
      </trkpt>
      <trkpt lat="43.716" lon="3.84045">
        <ele>114.96</ele>
        <time>2015-09-06T15:14:05Z</time>
      </trkpt>
      <trkpt lat="43.71608" lon="3.84015">
        <ele>114.59</ele>
        <time>2015-09-06T15:14:41Z</time>
      </trkpt>
      <trkpt lat="43.71585" lon="3.83974">
        <ele>114.42</ele>
        <time>2015-09-06T15:15:37Z</time>
      </trkpt>
      <trkpt lat="43.71555" lon="3.83937">
        <ele>115.25</ele>
        <time>2015-09-06T15:16:20Z</time>
      </trkpt>
      <trkpt lat="43.71526" lon="3.83906">
        <ele>115.99</ele>
        <time>2015-09-06T15:17:01Z</time>
      </trkpt>
      <trkpt lat="43.71516" lon="3.83885">
        <ele>116.86</ele>
        <time>2015-09-06T15:17:22Z</time>
      </trkpt>
      <trkpt lat="43.71506" lon="3.83841">
        <ele>121</ele>
        <time>2015-09-06T15:18:02Z</time>
      </trkpt>
      <trkpt lat="43.71495" lon="3.83819">
        <ele>120.28</ele>
        <time>2015-09-06T15:18:24Z</time>
      </trkpt>
      <trkpt lat="43.71482" lon="3.83797">
        <ele>121.33</ele>
        <time>2015-09-06T15:18:47Z</time>
      </trkpt>
      <trkpt lat="43.71453" lon="3.83764">
        <ele>124.23</ele>
        <time>2015-09-06T15:19:30Z</time>
      </trkpt>
      <trkpt lat="43.71434" lon="3.83751">
        <ele>123.24</ele>
        <time>2015-09-06T15:19:52Z</time>
      </trkpt>
      <trkpt lat="43.71416" lon="3.83728">
        <ele>122.4</ele>
        <time>2015-09-06T15:20:17Z</time>
      </trkpt>
      <trkpt lat="43.714" lon="3.83708">
        <ele>121.56</ele>
        <time>2015-09-06T15:20:38Z</time>
      </trkpt>
      <trkpt lat="43.71382" lon="3.83694">
        <ele>121.09</ele>
        <time>2015-09-06T15:20:59Z</time>
      </trkpt>
      <trkpt lat="43.71363" lon="3.83688">
        <ele>121.93</ele>
        <time>2015-09-06T15:21:20Z</time>
      </trkpt>
      <trkpt lat="43.71333" lon="3.83697">
        <ele>121.54</ele>
        <time>2015-09-06T15:22:00Z</time>
      </trkpt>
      <trkpt lat="43.71299" lon="3.83699">
        <ele>122.48</ele>
        <time>2015-09-06T15:22:37Z</time>
      </trkpt>
      <trkpt lat="43.71266" lon="3.83697">
        <ele>123.99</ele>
        <time>2015-09-06T15:23:14Z</time>
      </trkpt>
      <trkpt lat="43.71235" lon="3.83694">
        <ele>125.12</ele>
        <time>2015-09-06T15:23:49Z</time>
      </trkpt>
      <trkpt lat="43.71217" lon="3.83688">
        <ele>125.06</ele>
        <time>2015-09-06T15:24:08Z</time>
      </trkpt>
      <trkpt lat="43.71201" lon="3.83674">
        <ele>123.46</ele>
        <time>2015-09-06T15:24:27Z</time>
      </trkpt>
      <trkpt lat="43.71185" lon="3.83661">
        <ele>122.21</ele>
        <time>2015-09-06T15:24:47Z</time>
      </trkpt>
      <trkpt lat="43.71154" lon="3.83639">
        <ele>123.14</ele>
        <time>2015-09-06T15:25:25Z</time>
      </trkpt>
      <trkpt lat="43.71137" lon="3.83631">
        <ele>124.18</ele>
        <time>2015-09-06T15:25:46Z</time>
      </trkpt>
      <trkpt lat="43.71112" lon="3.83617">
        <ele>125.56</ele>
        <time>2015-09-06T15:26:15Z</time>
      </trkpt>
      <trkpt lat="43.71092" lon="3.83603">
        <ele>126.1</ele>
        <time>2015-09-06T15:26:38Z</time>
      </trkpt>
      <trkpt lat="43.71069" lon="3.83579">
        <ele>127.41</ele>
        <time>2015-09-06T15:27:06Z</time>
      </trkpt>
      <trkpt lat="43.71042" lon="3.8355">
        <ele>127.07</ele>
        <time>2015-09-06T15:27:45Z</time>
      </trkpt>
      <trkpt lat="43.71013" lon="3.83529">
        <ele>127.86</ele>
        <time>2015-09-06T15:28:20Z</time>
      </trkpt>
      <trkpt lat="43.70987" lon="3.83507">
        <ele>130.8</ele>
        <time>2015-09-06T15:28:57Z</time>
      </trkpt>
      <trkpt lat="43.70962" lon="3.8349">
        <ele>129.57</ele>
        <time>2015-09-06T15:29:24Z</time>
      </trkpt>
      <trkpt lat="43.70939" lon="3.83484">
        <ele>127.15</ele>
        <time>2015-09-06T15:29:48Z</time>
      </trkpt>
      <trkpt lat="43.70911" lon="3.83486">
        <ele>122.63</ele>
        <time>2015-09-06T15:30:21Z</time>
      </trkpt>
      <trkpt lat="43.70892" lon="3.83455">
        <ele>120.26</ele>
        <time>2015-09-06T15:30:56Z</time>
      </trkpt>
      <trkpt lat="43.70877" lon="3.83432">
        <ele>118.24</ele>
        <time>2015-09-06T15:31:20Z</time>
      </trkpt>
      <trkpt lat="43.70864" lon="3.83409">
        <ele>116.83</ele>
        <time>2015-09-06T15:31:53Z</time>
      </trkpt>
      <trkpt lat="43.70859" lon="3.83403">
        <ele>116.61</ele>
        <time>2015-09-06T15:34:40Z</time>
      </trkpt>
    </trkseg>
  </trk>
</gpx>